sensor_id;sensor_type;location;lat;lon;timestamp;temperature;humidity
4896;DHT22;2463;49.948;8.472;2022-08-19T00:01:30;22.50;99.90
4896;DHT22;2463;49.948;8.472;2022-08-19T00:04:01;22.50;99.90
4896;DHT22;2463;49.948;8.472;2022-08-19T00:06:30;22.50;99.90
4896;DHT22;2463;49.948;8.472;2022-08-19T00:08:58;22.50;99.90
4896;DHT22;2463;49.948;8.472;2022-08-19T00:11:26;22.50;99.90
4896;DHT22;2463;49.948;8.472;2022-08-19T00:13:55;22.50;99.90
4896;DHT22;2463;49.948;8.472;2022-08-19T00:16:24;22.50;99.90
4896;DHT22;2463;49.948;8.472;2022-08-19T00:18:53;22.50;99.90
4896;DHT22;2463;49.948;8.472;2022-08-19T00:21:20;22.50;99.90
4896;DHT22;2463;49.948;8.472;2022-08-19T00:23:47;22.50;99.90
4896;DHT22;2463;49.948;8.472;2022-08-19T00:26:14;22.60;99.90
4896;DHT22;2463;49.948;8.472;2022-08-19T00:28:40;22.60;99.90
4896;DHT22;2463;49.948;8.472;2022-08-19T00:31:08;22.60;99.90
4896;DHT22;2463;49.948;8.472;2022-08-19T00:33:35;22.40;99.90
4896;DHT22;2463;49.948;8.472;2022-08-19T00:36:06;22.40;99.90
4896;DHT22;2463;49.948;8.472;2022-08-19T00:38:35;22.40;99.90
4896;DHT22;2463;49.948;8.472;2022-08-19T00:41:04;22.40;99.90
4896;DHT22;2463;49.948;8.472;2022-08-19T00:43:31;22.30;99.90
4896;DHT22;2463;49.948;8.472;2022-08-19T00:45:58;22.40;99.90
4896;DHT22;2463;49.948;8.472;2022-08-19T00:48:25;22.40;99.90
4896;DHT22;2463;49.948;8.472;2022-08-19T00:50:52;22.30;99.90
4896;DHT22;2463;49.948;8.472;2022-08-19T00:53:24;22.40;99.90
4896;DHT22;2463;49.948;8.472;2022-08-19T00:55:54;22.40;99.90
4896;DHT22;2463;49.948;8.472;2022-08-19T00:58:26;22.40;99.90
4896;DHT22;2463;49.948;8.472;2022-08-19T01:00:54;22.40;99.90
4896;DHT22;2463;49.948;8.472;2022-08-19T01:03:22;22.40;99.90
4896;DHT22;2463;49.948;8.472;2022-08-19T01:05:50;22.40;99.90
4896;DHT22;2463;49.948;8.472;2022-08-19T01:08:19;22.40;99.90
4896;DHT22;2463;49.948;8.472;2022-08-19T01:10:50;22.40;99.90
4896;DHT22;2463;49.948;8.472;2022-08-19T01:13:22;22.40;99.90
4896;DHT22;2463;49.948;8.472;2022-08-19T01:16:00;22.40;99.90
4896;DHT22;2463;49.948;8.472;2022-08-19T01:18:28;22.50;99.90
4896;DHT22;2463;49.948;8.472;2022-08-19T01:20:58;22.50;99.90
4896;DHT22;2463;49.948;8.472;2022-08-19T01:23:27;22.50;99.90
4896;DHT22;2463;49.948;8.472;2022-08-19T01:26:15;22.50;99.90
4896;DHT22;2463;49.948;8.472;2022-08-19T01:28:45;22.50;99.90
4896;DHT22;2463;49.948;8.472;2022-08-19T01:31:19;22.60;99.90
4896;DHT22;2463;49.948;8.472;2022-08-19T01:33:54;22.60;99.90
4896;DHT22;2463;49.948;8.472;2022-08-19T01:36:28;22.60;99.90
4896;DHT22;2463;49.948;8.472;2022-08-19T01:38:56;22.60;99.90
4896;DHT22;2463;49.948;8.472;2022-08-19T01:41:24;22.60;99.90
4896;DHT22;2463;49.948;8.472;2022-08-19T01:43:52;22.70;99.90
4896;DHT22;2463;49.948;8.472;2022-08-19T01:46:39;22.70;99.90
4896;DHT22;2463;49.948;8.472;2022-08-19T01:49:07;22.80;99.90
4896;DHT22;2463;49.948;8.472;2022-08-19T01:51:35;22.80;99.90
4896;DHT22;2463;49.948;8.472;2022-08-19T01:54:09;22.80;99.90
4896;DHT22;2463;49.948;8.472;2022-08-19T01:56:35;22.80;99.90
4896;DHT22;2463;49.948;8.472;2022-08-19T01:59:06;22.90;99.90
4896;DHT22;2463;49.948;8.472;2022-08-19T02:01:34;22.90;99.90
4896;DHT22;2463;49.948;8.472;2022-08-19T02:04:02;22.80;99.90
4896;DHT22;2463;49.948;8.472;2022-08-19T02:06:29;22.80;99.90
4896;DHT22;2463;49.948;8.472;2022-08-19T02:08:56;22.80;99.90
4896;DHT22;2463;49.948;8.472;2022-08-19T02:11:27;22.80;99.90
4896;DHT22;2463;49.948;8.472;2022-08-19T02:13:54;22.80;99.90
4896;DHT22;2463;49.948;8.472;2022-08-19T02:16:22;22.80;99.90
4896;DHT22;2463;49.948;8.472;2022-08-19T02:18:50;22.80;99.90
4896;DHT22;2463;49.948;8.472;2022-08-19T02:21:19;22.70;99.90
4896;DHT22;2463;49.948;8.472;2022-08-19T02:23:47;22.70;99.90
4896;DHT22;2463;49.948;8.472;2022-08-19T02:26:15;22.60;99.90
4896;DHT22;2463;49.948;8.472;2022-08-19T02:28:42;22.70;99.90
4896;DHT22;2463;49.948;8.472;2022-08-19T02:31:10;22.70;99.90
4896;DHT22;2463;49.948;8.472;2022-08-19T02:33:37;22.60;99.90
4896;DHT22;2463;49.948;8.472;2022-08-19T02:36:05;22.60;99.90
4896;DHT22;2463;49.948;8.472;2022-08-19T02:38:33;22.60;99.90
4896;DHT22;2463;49.948;8.472;2022-08-19T02:41:05;22.60;99.90
4896;DHT22;2463;49.948;8.472;2022-08-19T02:43:32;22.60;99.90
4896;DHT22;2463;49.948;8.472;2022-08-19T02:46:15;22.60;99.90
4896;DHT22;2463;49.948;8.472;2022-08-19T02:48:51;22.60;99.90
4896;DHT22;2463;49.948;8.472;2022-08-19T02:51:24;22.60;99.90
4896;DHT22;2463;49.948;8.472;2022-08-19T02:53:52;22.60;99.90
4896;DHT22;2463;49.948;8.472;2022-08-19T02:56:19;22.60;99.90
4896;DHT22;2463;49.948;8.472;2022-08-19T02:58:47;22.60;99.90
4896;DHT22;2463;49.948;8.472;2022-08-19T03:01:31;22.60;99.90
4896;DHT22;2463;49.948;8.472;2022-08-19T03:04:00;22.60;99.90
4896;DHT22;2463;49.948;8.472;2022-08-19T03:06:27;22.60;99.90
4896;DHT22;2463;49.948;8.472;2022-08-19T03:08:54;22.60;99.90
4896;DHT22;2463;49.948;8.472;2022-08-19T03:11:22;22.60;99.90
4896;DHT22;2463;49.948;8.472;2022-08-19T03:13:50;22.50;99.90
4896;DHT22;2463;49.948;8.472;2022-08-19T03:16:22;22.60;99.90
4896;DHT22;2463;49.948;8.472;2022-08-19T03:18:50;22.50;99.90
4896;DHT22;2463;49.948;8.472;2022-08-19T03:21:21;22.50;99.90
4896;DHT22;2463;49.948;8.472;2022-08-19T03:23:49;22.60;99.90
4896;DHT22;2463;49.948;8.472;2022-08-19T03:26:16;22.50;99.90
4896;DHT22;2463;49.948;8.472;2022-08-19T03:28:44;22.50;99.90
4896;DHT22;2463;49.948;8.472;2022-08-19T03:31:25;22.50;99.90
4896;DHT22;2463;49.948;8.472;2022-08-19T03:34:17;22.50;99.90
4896;DHT22;2463;49.948;8.472;2022-08-19T03:36:46;22.50;99.90
4896;DHT22;2463;49.948;8.472;2022-08-19T03:39:13;22.40;99.90
4896;DHT22;2463;49.948;8.472;2022-08-19T03:41:44;22.40;99.90
4896;DHT22;2463;49.948;8.472;2022-08-19T03:44:15;22.40;99.90
4896;DHT22;2463;49.948;8.472;2022-08-19T03:46:46;22.30;99.90
4896;DHT22;2463;49.948;8.472;2022-08-19T03:49:13;22.20;99.90
4896;DHT22;2463;49.948;8.472;2022-08-19T03:51:41;22.30;99.90
4896;DHT22;2463;49.948;8.472;2022-08-19T03:54:11;22.20;99.90
4896;DHT22;2463;49.948;8.472;2022-08-19T03:56:39;22.20;99.90
4896;DHT22;2463;49.948;8.472;2022-08-19T03:59:10;22.20;99.90
4896;DHT22;2463;49.948;8.472;2022-08-19T04:01:37;22.20;99.90
4896;DHT22;2463;49.948;8.472;2022-08-19T04:04:04;22.20;99.90
4896;DHT22;2463;49.948;8.472;2022-08-19T04:06:35;22.10;99.90
4896;DHT22;2463;49.948;8.472;2022-08-19T04:09:09;22.20;99.90
4896;DHT22;2463;49.948;8.472;2022-08-19T04:11:42;22.00;99.90
4896;DHT22;2463;49.948;8.472;2022-08-19T04:14:18;22.10;99.90
4896;DHT22;2463;49.948;8.472;2022-08-19T04:16:47;22.20;99.90
4896;DHT22;2463;49.948;8.472;2022-08-19T04:19:16;22.10;99.90
4896;DHT22;2463;49.948;8.472;2022-08-19T04:21:45;22.20;99.90
4896;DHT22;2463;49.948;8.472;2022-08-19T04:24:13;22.20;99.90
4896;DHT22;2463;49.948;8.472;2022-08-19T04:26:39;22.10;99.90
4896;DHT22;2463;49.948;8.472;2022-08-19T04:29:10;22.10;99.90
4896;DHT22;2463;49.948;8.472;2022-08-19T04:31:39;22.10;99.90
4896;DHT22;2463;49.948;8.472;2022-08-19T04:34:09;22.00;99.90
4896;DHT22;2463;49.948;8.472;2022-08-19T04:36:40;22.00;99.90
4896;DHT22;2463;49.948;8.472;2022-08-19T04:39:10;22.00;99.90
4896;DHT22;2463;49.948;8.472;2022-08-19T04:41:38;21.90;99.90
4896;DHT22;2463;49.948;8.472;2022-08-19T04:44:23;21.90;99.90
4896;DHT22;2463;49.948;8.472;2022-08-19T04:46:50;21.90;99.90
4896;DHT22;2463;49.948;8.472;2022-08-19T04:49:19;21.80;99.90
4896;DHT22;2463;49.948;8.472;2022-08-19T04:51:49;21.80;99.90
4896;DHT22;2463;49.948;8.472;2022-08-19T04:54:17;21.80;99.90
4896;DHT22;2463;49.948;8.472;2022-08-19T04:57:05;21.80;99.90
4896;DHT22;2463;49.948;8.472;2022-08-19T04:59:34;21.70;99.90
4896;DHT22;2463;49.948;8.472;2022-08-19T05:02:00;21.80;99.90
4896;DHT22;2463;49.948;8.472;2022-08-19T05:04:27;21.80;99.90
4896;DHT22;2463;49.948;8.472;2022-08-19T05:06:57;21.80;99.90
4896;DHT22;2463;49.948;8.472;2022-08-19T05:09:27;21.80;99.90
4896;DHT22;2463;49.948;8.472;2022-08-19T05:12:14;21.90;99.90
4896;DHT22;2463;49.948;8.472;2022-08-19T05:14:41;21.90;99.90
4896;DHT22;2463;49.948;8.472;2022-08-19T05:17:08;21.90;99.90
4896;DHT22;2463;49.948;8.472;2022-08-19T05:19:54;22.00;99.90
4896;DHT22;2463;49.948;8.472;2022-08-19T05:22:40;22.00;99.90
4896;DHT22;2463;49.948;8.472;2022-08-19T05:25:14;22.20;99.90
4896;DHT22;2463;49.948;8.472;2022-08-19T05:27:41;22.20;99.90
4896;DHT22;2463;49.948;8.472;2022-08-19T05:30:10;22.30;99.90
4896;DHT22;2463;49.948;8.472;2022-08-19T05:32:37;22.40;99.90
4896;DHT22;2463;49.948;8.472;2022-08-19T05:35:05;22.50;99.90
4896;DHT22;2463;49.948;8.472;2022-08-19T05:37:32;22.60;99.90
4896;DHT22;2463;49.948;8.472;2022-08-19T05:39:59;22.70;99.90
4896;DHT22;2463;49.948;8.472;2022-08-19T05:42:25;22.70;99.90
4896;DHT22;2463;49.948;8.472;2022-08-19T05:44:52;22.80;99.90
4896;DHT22;2463;49.948;8.472;2022-08-19T05:47:19;22.90;99.90
4896;DHT22;2463;49.948;8.472;2022-08-19T05:49:47;22.90;99.90
4896;DHT22;2463;49.948;8.472;2022-08-19T05:52:16;23.10;99.90
4896;DHT22;2463;49.948;8.472;2022-08-19T05:54:46;23.10;99.90
4896;DHT22;2463;49.948;8.472;2022-08-19T05:57:18;23.20;99.90
4896;DHT22;2463;49.948;8.472;2022-08-19T05:59:45;23.30;99.90
4896;DHT22;2463;49.948;8.472;2022-08-19T06:02:12;23.30;99.90
4896;DHT22;2463;49.948;8.472;2022-08-19T06:04:40;23.40;99.90
4896;DHT22;2463;49.948;8.472;2022-08-19T06:07:09;23.50;99.90
4896;DHT22;2463;49.948;8.472;2022-08-19T06:09:39;23.70;99.90
4896;DHT22;2463;49.948;8.472;2022-08-19T06:12:06;23.80;99.90
4896;DHT22;2463;49.948;8.472;2022-08-19T06:14:34;23.90;99.90
4896;DHT22;2463;49.948;8.472;2022-08-19T06:17:07;24.00;99.90
4896;DHT22;2463;49.948;8.472;2022-08-19T06:19:35;24.20;99.90
4896;DHT22;2463;49.948;8.472;2022-08-19T06:22:07;24.20;99.90
4896;DHT22;2463;49.948;8.472;2022-08-19T06:24:34;24.30;99.90
4896;DHT22;2463;49.948;8.472;2022-08-19T06:27:03;24.50;99.90
4896;DHT22;2463;49.948;8.472;2022-08-19T06:29:31;24.60;99.90
4896;DHT22;2463;49.948;8.472;2022-08-19T06:32:01;24.80;99.90
4896;DHT22;2463;49.948;8.472;2022-08-19T06:34:31;25.00;99.90
4896;DHT22;2463;49.948;8.472;2022-08-19T06:37:00;25.30;99.90
4896;DHT22;2463;49.948;8.472;2022-08-19T06:39:36;25.60;99.90
4896;DHT22;2463;49.948;8.472;2022-08-19T06:42:05;26.00;99.90
4896;DHT22;2463;49.948;8.472;2022-08-19T06:44:37;26.30;99.90
4896;DHT22;2463;49.948;8.472;2022-08-19T06:47:10;26.60;99.90
4896;DHT22;2463;49.948;8.472;2022-08-19T06:49:48;27.10;99.90
4896;DHT22;2463;49.948;8.472;2022-08-19T06:52:15;27.60;99.90
4896;DHT22;2463;49.948;8.472;2022-08-19T06:54:42;28.10;99.90
4896;DHT22;2463;49.948;8.472;2022-08-19T06:57:23;28.50;99.90
4896;DHT22;2463;49.948;8.472;2022-08-19T06:59:50;29.20;99.90
4896;DHT22;2463;49.948;8.472;2022-08-19T07:02:17;29.90;99.90
4896;DHT22;2463;49.948;8.472;2022-08-19T07:04:49;30.70;99.90
4896;DHT22;2463;49.948;8.472;2022-08-19T07:07:20;31.20;99.90
4896;DHT22;2463;49.948;8.472;2022-08-19T07:09:49;31.60;99.90
4896;DHT22;2463;49.948;8.472;2022-08-19T07:12:27;31.80;99.90
4896;DHT22;2463;49.948;8.472;2022-08-19T07:14:56;31.90;99.60
4896;DHT22;2463;49.948;8.472;2022-08-19T07:17:24;32.10;99.70
4896;DHT22;2463;49.948;8.472;2022-08-19T07:19:51;32.20;99.50
4896;DHT22;2463;49.948;8.472;2022-08-19T07:22:21;32.30;98.80
4896;DHT22;2463;49.948;8.472;2022-08-19T07:24:50;32.30;98.10
4896;DHT22;2463;49.948;8.472;2022-08-19T07:27:18;32.00;97.40
4896;DHT22;2463;49.948;8.472;2022-08-19T07:29:52;31.70;97.90
4896;DHT22;2463;49.948;8.472;2022-08-19T07:32:24;31.50;98.60
4896;DHT22;2463;49.948;8.472;2022-08-19T07:34:53;31.20;98.60
4896;DHT22;2463;49.948;8.472;2022-08-19T07:37:23;31.20;99.00
4896;DHT22;2463;49.948;8.472;2022-08-19T07:39:53;31.20;99.00
4896;DHT22;2463;49.948;8.472;2022-08-19T07:42:20;31.20;99.10
4896;DHT22;2463;49.948;8.472;2022-08-19T07:44:47;31.30;98.80
4896;DHT22;2463;49.948;8.472;2022-08-19T07:47:17;31.40;98.90
4896;DHT22;2463;49.948;8.472;2022-08-19T07:50:07;31.30;98.20
4896;DHT22;2463;49.948;8.472;2022-08-19T07:52:34;31.30;98.70
4896;DHT22;2463;49.948;8.472;2022-08-19T07:55:03;31.30;98.80
4896;DHT22;2463;49.948;8.472;2022-08-19T07:57:30;31.40;98.70
4896;DHT22;2463;49.948;8.472;2022-08-19T07:59:58;31.40;98.00
4896;DHT22;2463;49.948;8.472;2022-08-19T08:02:24;31.50;98.40
4896;DHT22;2463;49.948;8.472;2022-08-19T08:04:51;31.60;98.30
4896;DHT22;2463;49.948;8.472;2022-08-19T08:07:36;31.60;97.90
4896;DHT22;2463;49.948;8.472;2022-08-19T08:10:22;31.80;98.30
4896;DHT22;2463;49.948;8.472;2022-08-19T08:12:50;31.80;98.10
4896;DHT22;2463;49.948;8.472;2022-08-19T08:15:37;31.90;97.80
4896;DHT22;2463;49.948;8.472;2022-08-19T08:18:09;31.90;96.80
4896;DHT22;2463;49.948;8.472;2022-08-19T08:20:36;32.00;97.20
4896;DHT22;2463;49.948;8.472;2022-08-19T08:23:03;32.10;96.50
4896;DHT22;2463;49.948;8.472;2022-08-19T08:25:49;32.10;96.40
4896;DHT22;2463;49.948;8.472;2022-08-19T08:28:19;32.30;96.90
4896;DHT22;2463;49.948;8.472;2022-08-19T08:30:48;32.50;96.70
4896;DHT22;2463;49.948;8.472;2022-08-19T08:33:24;32.70;96.30
4896;DHT22;2463;49.948;8.472;2022-08-19T08:36:02;32.90;96.00
4896;DHT22;2463;49.948;8.472;2022-08-19T08:38:30;33.20;94.90
4896;DHT22;2463;49.948;8.472;2022-08-19T08:41:40;33.20;94.90
4896;DHT22;2463;49.948;8.472;2022-08-19T08:45:13;33.20;95.30
4896;DHT22;2463;49.948;8.472;2022-08-19T08:47:17;33.50;94.70
4896;DHT22;2463;49.948;8.472;2022-08-19T08:50:10;33.50;94.00
4896;DHT22;2463;49.948;8.472;2022-08-19T08:52:46;33.70;94.20
4896;DHT22;2463;49.948;8.472;2022-08-19T08:55:20;33.90;93.70
4896;DHT22;2463;49.948;8.472;2022-08-19T09:00:28;34.10;92.10
4896;DHT22;2463;49.948;8.472;2022-08-19T09:02:57;34.20;91.60
4896;DHT22;2463;49.948;8.472;2022-08-19T09:05:33;34.20;92.20
4896;DHT22;2463;49.948;8.472;2022-08-19T09:08:24;34.30;92.20
4896;DHT22;2463;49.948;8.472;2022-08-19T09:10:56;34.50;91.70
4896;DHT22;2463;49.948;8.472;2022-08-19T09:13:48;34.50;91.40
4896;DHT22;2463;49.948;8.472;2022-08-19T09:16:20;34.60;91.40
4896;DHT22;2463;49.948;8.472;2022-08-19T09:18:56;34.70;91.50
4896;DHT22;2463;49.948;8.472;2022-08-19T09:21:24;34.60;90.70
4896;DHT22;2463;49.948;8.472;2022-08-19T09:23:59;34.40;90.20
4896;DHT22;2463;49.948;8.472;2022-08-19T09:26:26;34.10;90.70
4896;DHT22;2463;49.948;8.472;2022-08-19T09:29:13;34.10;90.70
4896;DHT22;2463;49.948;8.472;2022-08-19T09:31:40;34.10;90.30
4896;DHT22;2463;49.948;8.472;2022-08-19T09:34:07;33.80;89.80
4896;DHT22;2463;49.948;8.472;2022-08-19T09:36:46;33.80;89.80
4896;DHT22;2463;49.948;8.472;2022-08-19T09:39:13;33.80;89.10
4896;DHT22;2463;49.948;8.472;2022-08-19T09:41:42;33.80;89.70
4896;DHT22;2463;49.948;8.472;2022-08-19T09:44:14;34.00;90.20
4896;DHT22;2463;49.948;8.472;2022-08-19T09:46:43;34.30;89.40
4896;DHT22;2463;49.948;8.472;2022-08-19T09:49:10;34.50;90.00
4896;DHT22;2463;49.948;8.472;2022-08-19T09:51:38;34.70;88.30
4896;DHT22;2463;49.948;8.472;2022-08-19T09:54:06;35.10;86.30
4896;DHT22;2463;49.948;8.472;2022-08-19T09:56:36;35.20;85.80
4896;DHT22;2463;49.948;8.472;2022-08-19T09:59:03;35.30;85.90
4896;DHT22;2463;49.948;8.472;2022-08-19T10:01:32;35.40;85.90
4896;DHT22;2463;49.948;8.472;2022-08-19T10:04:00;35.70;86.20
4896;DHT22;2463;49.948;8.472;2022-08-19T10:06:40;35.80;84.50
4896;DHT22;2463;49.948;8.472;2022-08-19T10:09:13;36.00;85.20
4896;DHT22;2463;49.948;8.472;2022-08-19T10:11:42;36.20;84.00
4896;DHT22;2463;49.948;8.472;2022-08-19T10:14:21;36.40;83.10
4896;DHT22;2463;49.948;8.472;2022-08-19T10:16:49;36.50;82.00
4896;DHT22;2463;49.948;8.472;2022-08-19T10:19:17;36.70;81.90
4896;DHT22;2463;49.948;8.472;2022-08-19T10:21:52;36.80;82.20
4896;DHT22;2463;49.948;8.472;2022-08-19T10:24:21;36.90;82.10
4896;DHT22;2463;49.948;8.472;2022-08-19T10:26:50;37.00;79.10
4896;DHT22;2463;49.948;8.472;2022-08-19T10:29:24;36.80;80.20
4896;DHT22;2463;49.948;8.472;2022-08-19T10:32:00;36.70;81.10
4896;DHT22;2463;49.948;8.472;2022-08-19T10:34:29;36.90;80.00
4896;DHT22;2463;49.948;8.472;2022-08-19T10:36:57;37.20;77.50
4896;DHT22;2463;49.948;8.472;2022-08-19T10:39:28;37.10;76.80
4896;DHT22;2463;49.948;8.472;2022-08-19T10:41:57;37.10;76.70
4896;DHT22;2463;49.948;8.472;2022-08-19T10:44:24;37.10;76.70
4896;DHT22;2463;49.948;8.472;2022-08-19T10:46:57;37.20;78.40
4896;DHT22;2463;49.948;8.472;2022-08-19T10:49:25;37.40;75.00
4896;DHT22;2463;49.948;8.472;2022-08-19T10:51:54;37.50;76.20
4896;DHT22;2463;49.948;8.472;2022-08-19T10:54:45;37.50;74.80
4896;DHT22;2463;49.948;8.472;2022-08-19T10:57:34;37.60;75.20
4896;DHT22;2463;49.948;8.472;2022-08-19T11:00:22;37.70;74.20
4896;DHT22;2463;49.948;8.472;2022-08-19T11:02:50;37.80;73.10
4896;DHT22;2463;49.948;8.472;2022-08-19T11:05:17;37.80;73.30
4896;DHT22;2463;49.948;8.472;2022-08-19T11:07:44;37.80;71.90
4896;DHT22;2463;49.948;8.472;2022-08-19T11:10:13;37.90;70.00
4896;DHT22;2463;49.948;8.472;2022-08-19T11:12:46;37.90;70.60
4896;DHT22;2463;49.948;8.472;2022-08-19T11:15:13;38.10;70.70
4896;DHT22;2463;49.948;8.472;2022-08-19T11:17:41;38.40;69.60
4896;DHT22;2463;49.948;8.472;2022-08-19T11:20:11;38.40;67.80
4896;DHT22;2463;49.948;8.472;2022-08-19T11:22:39;38.40;67.70
4896;DHT22;2463;49.948;8.472;2022-08-19T11:25:09;38.40;67.90
4896;DHT22;2463;49.948;8.472;2022-08-19T11:27:38;38.50;67.80
4896;DHT22;2463;49.948;8.472;2022-08-19T11:30:08;38.60;65.90
4896;DHT22;2463;49.948;8.472;2022-08-19T11:32:42;38.60;66.90
4896;DHT22;2463;49.948;8.472;2022-08-19T11:35:15;38.50;66.60
4896;DHT22;2463;49.948;8.472;2022-08-19T11:37:42;38.50;64.20
4896;DHT22;2463;49.948;8.472;2022-08-19T11:40:09;38.20;66.60
4896;DHT22;2463;49.948;8.472;2022-08-19T11:42:36;38.30;66.10
4896;DHT22;2463;49.948;8.472;2022-08-19T11:45:27;38.20;63.80
4896;DHT22;2463;49.948;8.472;2022-08-19T11:47:54;37.90;65.60
4896;DHT22;2463;49.948;8.472;2022-08-19T11:50:21;37.50;65.70
4896;DHT22;2463;49.948;8.472;2022-08-19T11:52:50;37.00;67.10
4896;DHT22;2463;49.948;8.472;2022-08-19T11:55:17;36.90;67.30
4896;DHT22;2463;49.948;8.472;2022-08-19T11:57:46;36.90;65.90
4896;DHT22;2463;49.948;8.472;2022-08-19T12:00:13;36.90;67.80
4896;DHT22;2463;49.948;8.472;2022-08-19T12:02:40;37.20;69.10
4896;DHT22;2463;49.948;8.472;2022-08-19T12:05:07;37.30;66.40
4896;DHT22;2463;49.948;8.472;2022-08-19T12:07:38;37.00;64.40
4896;DHT22;2463;49.948;8.472;2022-08-19T12:10:05;36.80;65.30
4896;DHT22;2463;49.948;8.472;2022-08-19T12:12:33;36.80;65.80
4896;DHT22;2463;49.948;8.472;2022-08-19T12:15:00;36.80;65.80
4896;DHT22;2463;49.948;8.472;2022-08-19T12:17:27;37.00;67.70
4896;DHT22;2463;49.948;8.472;2022-08-19T12:19:54;37.10;66.00
4896;DHT22;2463;49.948;8.472;2022-08-19T12:22:21;37.30;66.90
4896;DHT22;2463;49.948;8.472;2022-08-19T12:24:48;37.60;66.40
4896;DHT22;2463;49.948;8.472;2022-08-19T12:27:17;38.00;65.00
4896;DHT22;2463;49.948;8.472;2022-08-19T12:30:06;38.20;62.70
4896;DHT22;2463;49.948;8.472;2022-08-19T12:32:33;38.30;61.50
4896;DHT22;2463;49.948;8.472;2022-08-19T12:35:00;38.50;60.30
4896;DHT22;2463;49.948;8.472;2022-08-19T12:37:27;38.40;60.40
4896;DHT22;2463;49.948;8.472;2022-08-19T12:39:54;38.40;59.50
4896;DHT22;2463;49.948;8.472;2022-08-19T12:42:21;38.60;61.80
4896;DHT22;2463;49.948;8.472;2022-08-19T12:44:49;38.70;58.90
4896;DHT22;2463;49.948;8.472;2022-08-19T12:47:18;38.70;59.70
4896;DHT22;2463;49.948;8.472;2022-08-19T12:49:45;38.70;58.40
4896;DHT22;2463;49.948;8.472;2022-08-19T12:52:23;38.50;58.90
4896;DHT22;2463;49.948;8.472;2022-08-19T12:54:51;38.50;61.40
4896;DHT22;2463;49.948;8.472;2022-08-19T12:57:24;38.40;59.30
4896;DHT22;2463;49.948;8.472;2022-08-19T13:00:00;37.90;57.90
4896;DHT22;2463;49.948;8.472;2022-08-19T13:02:30;37.40;59.90
4896;DHT22;2463;49.948;8.472;2022-08-19T13:05:06;37.20;59.10
4896;DHT22;2463;49.948;8.472;2022-08-19T13:07:35;36.90;58.80
4896;DHT22;2463;49.948;8.472;2022-08-19T13:10:02;37.00;60.70
4896;DHT22;2463;49.948;8.472;2022-08-19T13:12:29;37.10;59.30
4896;DHT22;2463;49.948;8.472;2022-08-19T13:14:55;37.10;59.90
4896;DHT22;2463;49.948;8.472;2022-08-19T13:17:22;37.00;58.60
4896;DHT22;2463;49.948;8.472;2022-08-19T13:19:49;36.90;59.80
4896;DHT22;2463;49.948;8.472;2022-08-19T13:22:17;37.10;59.20
4896;DHT22;2463;49.948;8.472;2022-08-19T13:24:44;37.30;60.40
4896;DHT22;2463;49.948;8.472;2022-08-19T13:27:13;37.50;58.20
4896;DHT22;2463;49.948;8.472;2022-08-19T13:29:43;37.40;57.00
4896;DHT22;2463;49.948;8.472;2022-08-19T13:32:29;37.10;57.00
4896;DHT22;2463;49.948;8.472;2022-08-19T13:35:16;36.80;56.70
4896;DHT22;2463;49.948;8.472;2022-08-19T13:37:43;36.70;56.60
4896;DHT22;2463;49.948;8.472;2022-08-19T13:40:17;36.80;58.10
4896;DHT22;2463;49.948;8.472;2022-08-19T13:42:48;36.90;57.50
4896;DHT22;2463;49.948;8.472;2022-08-19T13:45:21;37.20;56.00
4896;DHT22;2463;49.948;8.472;2022-08-19T13:47:50;37.40;55.10
4896;DHT22;2463;49.948;8.472;2022-08-19T13:50:28;37.10;55.20
4896;DHT22;2463;49.948;8.472;2022-08-19T13:52:55;36.60;55.40
4896;DHT22;2463;49.948;8.472;2022-08-19T13:55:23;36.10;56.70
4896;DHT22;2463;49.948;8.472;2022-08-19T13:57:59;35.50;56.90
4896;DHT22;2463;49.948;8.472;2022-08-19T14:00:31;35.20;57.80
4896;DHT22;2463;49.948;8.472;2022-08-19T14:02:58;34.90;57.90
4896;DHT22;2463;49.948;8.472;2022-08-19T14:05:27;34.60;58.40
4896;DHT22;2463;49.948;8.472;2022-08-19T14:07:55;34.30;58.90
4896;DHT22;2463;49.948;8.472;2022-08-19T14:10:23;34.50;58.60
4896;DHT22;2463;49.948;8.472;2022-08-19T14:12:53;34.50;58.60
4896;DHT22;2463;49.948;8.472;2022-08-19T14:17:50;34.20;58.90
4896;DHT22;2463;49.948;8.472;2022-08-19T14:20:16;34.20;58.00
4896;DHT22;2463;49.948;8.472;2022-08-19T14:22:45;34.10;58.40
4896;DHT22;2463;49.948;8.472;2022-08-19T14:25:19;33.90;57.60
4896;DHT22;2463;49.948;8.472;2022-08-19T14:27:47;33.70;58.00
4896;DHT22;2463;49.948;8.472;2022-08-19T14:30:28;33.50;58.60
4896;DHT22;2463;49.948;8.472;2022-08-19T14:32:56;33.50;59.50
4896;DHT22;2463;49.948;8.472;2022-08-19T14:35:25;33.70;60.40
4896;DHT22;2463;49.948;8.472;2022-08-19T14:37:53;33.90;60.20
4896;DHT22;2463;49.948;8.472;2022-08-19T14:40:23;34.20;59.30
4896;DHT22;2463;49.948;8.472;2022-08-19T14:42:54;34.30;58.40
4896;DHT22;2463;49.948;8.472;2022-08-19T14:45:27;34.50;57.40
4896;DHT22;2463;49.948;8.472;2022-08-19T14:47:54;34.40;57.60
4896;DHT22;2463;49.948;8.472;2022-08-19T14:50:22;34.40;58.60
4896;DHT22;2463;49.948;8.472;2022-08-19T14:52:49;34.50;59.20
4896;DHT22;2463;49.948;8.472;2022-08-19T14:55:16;34.60;58.60
4896;DHT22;2463;49.948;8.472;2022-08-19T14:57:44;34.60;57.60
4896;DHT22;2463;49.948;8.472;2022-08-19T15:00:12;34.60;58.70
4896;DHT22;2463;49.948;8.472;2022-08-19T15:02:42;34.60;59.10
4896;DHT22;2463;49.948;8.472;2022-08-19T15:05:10;34.60;57.00
4896;DHT22;2463;49.948;8.472;2022-08-19T15:07:37;34.40;57.10
4896;DHT22;2463;49.948;8.472;2022-08-19T15:10:06;34.30;56.90
4896;DHT22;2463;49.948;8.472;2022-08-19T15:12:37;34.20;57.50
4896;DHT22;2463;49.948;8.472;2022-08-19T15:15:11;34.10;55.90
4896;DHT22;2463;49.948;8.472;2022-08-19T15:17:40;33.90;56.70
4896;DHT22;2463;49.948;8.472;2022-08-19T15:20:14;33.70;57.00
4896;DHT22;2463;49.948;8.472;2022-08-19T15:22:41;33.60;57.90
4896;DHT22;2463;49.948;8.472;2022-08-19T15:25:10;33.40;57.10
4896;DHT22;2463;49.948;8.472;2022-08-19T15:27:38;33.40;58.20
4896;DHT22;2463;49.948;8.472;2022-08-19T15:30:07;33.30;57.80
4896;DHT22;2463;49.948;8.472;2022-08-19T15:32:35;33.40;58.50
4896;DHT22;2463;49.948;8.472;2022-08-19T15:35:04;33.40;57.70
4896;DHT22;2463;49.948;8.472;2022-08-19T15:37:31;33.30;57.70
4896;DHT22;2463;49.948;8.472;2022-08-19T15:40:04;33.20;58.40
4896;DHT22;2463;49.948;8.472;2022-08-19T15:42:32;33.10;58.70
4896;DHT22;2463;49.948;8.472;2022-08-19T15:44:59;33.10;58.40
4896;DHT22;2463;49.948;8.472;2022-08-19T15:47:30;33.20;58.00
4896;DHT22;2463;49.948;8.472;2022-08-19T15:50:09;33.40;59.20
4896;DHT22;2463;49.948;8.472;2022-08-19T15:52:51;33.50;59.60
4896;DHT22;2463;49.948;8.472;2022-08-19T15:55:23;33.50;59.30
4896;DHT22;2463;49.948;8.472;2022-08-19T15:58:02;33.50;59.00
4896;DHT22;2463;49.948;8.472;2022-08-19T16:01:00;33.50;59.70
4896;DHT22;2463;49.948;8.472;2022-08-19T16:03:48;33.30;58.90
4896;DHT22;2463;49.948;8.472;2022-08-19T16:06:44;33.20;58.00
4896;DHT22;2463;49.948;8.472;2022-08-19T16:09:12;33.10;58.40
4896;DHT22;2463;49.948;8.472;2022-08-19T16:11:39;33.00;58.60
4896;DHT22;2463;49.948;8.472;2022-08-19T16:14:15;32.90;59.50
4896;DHT22;2463;49.948;8.472;2022-08-19T16:16:42;32.90;59.30
4896;DHT22;2463;49.948;8.472;2022-08-19T16:19:14;32.90;59.80
4896;DHT22;2463;49.948;8.472;2022-08-19T16:21:43;32.60;59.40
4896;DHT22;2463;49.948;8.472;2022-08-19T16:24:12;32.70;60.30
4896;DHT22;2463;49.948;8.472;2022-08-19T16:26:40;32.60;60.00
4896;DHT22;2463;49.948;8.472;2022-08-19T16:29:08;32.50;59.00
4896;DHT22;2463;49.948;8.472;2022-08-19T16:31:41;32.50;59.40